sensor_id;sensor_type;location;lat;lon;timestamp;P1;durP1;ratioP1;P2;durP2;ratioP2
1585;SDS011;786;48.718;9.514;2023-05-23T00:00:32;19.25;;;14.68;;
1585;SDS011;786;48.718;9.514;2023-05-23T00:02:58;17.95;;;15.82;;
1585;SDS011;786;48.718;9.514;2023-05-23T00:05:25;20.20;;;16.75;;
1585;SDS011;786;48.718;9.514;2023-05-23T00:07:53;18.10;;;13.48;;
1585;SDS011;786;48.718;9.514;2023-05-23T00:10:19;18.08;;;14.93;;
1585;SDS011;786;48.718;9.514;2023-05-23T00:12:46;20.17;;;17.35;;
1585;SDS011;786;48.718;9.514;2023-05-23T00:15:14;17.33;;;13.10;;
1585;SDS011;786;48.718;9.514;2023-05-23T00:17:40;19.50;;;15.60;;
1585;SDS011;786;48.718;9.514;2023-05-23T00:20:08;16.40;;;14.05;;
1585;SDS011;786;48.718;9.514;2023-05-23T00:22:36;19.60;;;14.95;;
1585;SDS011;786;48.718;9.514;2023-05-23T00:25:04;20.02;;;16.58;;
1585;SDS011;786;48.718;9.514;2023-05-23T00:27:30;18.35;;;14.88;;
1585;SDS011;786;48.718;9.514;2023-05-23T00:29:57;17.40;;;14.93;;
1585;SDS011;786;48.718;9.514;2023-05-23T00:32:24;17.48;;;15.23;;
1585;SDS011;786;48.718;9.514;2023-05-23T00:34:51;20.15;;;16.25;;
1585;SDS011;786;48.718;9.514;2023-05-23T00:37:18;17.17;;;13.38;;
1585;SDS011;786;48.718;9.514;2023-05-23T00:39:46;20.73;;;16.42;;
1585;SDS011;786;48.718;9.514;2023-05-23T00:42:12;18.92;;;15.07;;
1585;SDS011;786;48.718;9.514;2023-05-23T00:44:39;21.35;;;18.98;;
1585;SDS011;786;48.718;9.514;2023-05-23T00:47:05;16.88;;;14.18;;
1585;SDS011;786;48.718;9.514;2023-05-23T00:49:34;22.23;;;18.30;;
1585;SDS011;786;48.718;9.514;2023-05-23T00:52:00;16.58;;;13.13;;
1585;SDS011;786;48.718;9.514;2023-05-23T00:54:28;18.75;;;16.77;;
1585;SDS011;786;48.718;9.514;2023-05-23T00:56:56;17.00;;;13.73;;
1585;SDS011;786;48.718;9.514;2023-05-23T00:59:23;20.98;;;16.15;;
1585;SDS011;786;48.718;9.514;2023-05-23T01:01:50;18.70;;;14.98;;
1585;SDS011;786;48.718;9.514;2023-05-23T01:04:18;16.48;;;13.80;;
1585;SDS011;786;48.718;9.514;2023-05-23T01:06:46;19.55;;;15.90;;
1585;SDS011;786;48.718;9.514;2023-05-23T01:09:13;18.13;;;14.63;;
1585;SDS011;786;48.718;9.514;2023-05-23T01:11:42;23.83;;;17.60;;
1585;SDS011;786;48.718;9.514;2023-05-23T01:14:11;18.52;;;14.60;;
1585;SDS011;786;48.718;9.514;2023-05-23T01:16:43;19.27;;;16.08;;
1585;SDS011;786;48.718;9.514;2023-05-23T01:19:23;18.80;;;15.90;;
1585;SDS011;786;48.718;9.514;2023-05-23T01:22:09;16.70;;;13.55;;
1585;SDS011;786;48.718;9.514;2023-05-23T01:24:39;22.42;;;19.05;;
1585;SDS011;786;48.718;9.514;2023-05-23T01:27:14;19.90;;;16.50;;
1585;SDS011;786;48.718;9.514;2023-05-23T01:29:50;21.40;;;17.88;;
1585;SDS011;786;48.718;9.514;2023-05-23T01:34:47;19.60;;;17.00;;
1585;SDS011;786;48.718;9.514;2023-05-23T01:37:14;16.52;;;13.38;;
1585;SDS011;786;48.718;9.514;2023-05-23T01:39:43;24.83;;;17.50;;
1585;SDS011;786;48.718;9.514;2023-05-23T01:42:09;17.67;;;15.20;;
1585;SDS011;786;48.718;9.514;2023-05-23T01:44:36;19.27;;;16.52;;
1585;SDS011;786;48.718;9.514;2023-05-23T01:47:06;20.05;;;13.27;;
1585;SDS011;786;48.718;9.514;2023-05-23T01:49:33;19.00;;;16.45;;
1585;SDS011;786;48.718;9.514;2023-05-23T01:52:01;15.45;;;13.68;;
1585;SDS011;786;48.718;9.514;2023-05-23T01:54:28;17.27;;;14.80;;
1585;SDS011;786;48.718;9.514;2023-05-23T01:56:56;16.30;;;14.48;;
1585;SDS011;786;48.718;9.514;2023-05-23T01:59:22;16.65;;;13.52;;
1585;SDS011;786;48.718;9.514;2023-05-23T02:01:49;19.83;;;16.10;;
1585;SDS011;786;48.718;9.514;2023-05-23T02:04:17;14.90;;;12.48;;
1585;SDS011;786;48.718;9.514;2023-05-23T02:06:43;22.73;;;16.98;;
1585;SDS011;786;48.718;9.514;2023-05-23T02:09:10;19.85;;;15.10;;
1585;SDS011;786;48.718;9.514;2023-05-23T02:11:36;18.88;;;16.88;;
1585;SDS011;786;48.718;9.514;2023-05-23T02:14:03;17.25;;;14.77;;
1585;SDS011;786;48.718;9.514;2023-05-23T02:16:29;18.38;;;14.80;;
1585;SDS011;786;48.718;9.514;2023-05-23T02:18:57;17.20;;;14.90;;
1585;SDS011;786;48.718;9.514;2023-05-23T02:21:24;18.42;;;16.38;;
1585;SDS011;786;48.718;9.514;2023-05-23T02:23:51;16.92;;;15.13;;
1585;SDS011;786;48.718;9.514;2023-05-23T02:26:17;18.77;;;15.68;;
1585;SDS011;786;48.718;9.514;2023-05-23T02:28:44;19.35;;;16.70;;
1585;SDS011;786;48.718;9.514;2023-05-23T02:31:10;21.13;;;15.35;;
1585;SDS011;786;48.718;9.514;2023-05-23T02:33:36;20.50;;;16.50;;
1585;SDS011;786;48.718;9.514;2023-05-23T02:36:03;21.63;;;16.75;;
1585;SDS011;786;48.718;9.514;2023-05-23T02:38:31;20.88;;;18.63;;
1585;SDS011;786;48.718;9.514;2023-05-23T02:40:57;18.00;;;14.80;;
1585;SDS011;786;48.718;9.514;2023-05-23T02:43:24;17.65;;;15.20;;
1585;SDS011;786;48.718;9.514;2023-05-23T02:45:51;21.58;;;16.25;;
1585;SDS011;786;48.718;9.514;2023-05-23T02:48:17;23.25;;;17.38;;
1585;SDS011;786;48.718;9.514;2023-05-23T02:50:43;23.63;;;18.48;;
1585;SDS011;786;48.718;9.514;2023-05-23T02:53:10;21.23;;;16.45;;
1585;SDS011;786;48.718;9.514;2023-05-23T02:55:37;25.20;;;18.88;;
1585;SDS011;786;48.718;9.514;2023-05-23T02:58:04;22.17;;;16.42;;
1585;SDS011;786;48.718;9.514;2023-05-23T03:00:31;21.98;;;17.75;;
1585;SDS011;786;48.718;9.514;2023-05-23T03:02:57;20.88;;;16.13;;
1585;SDS011;786;48.718;9.514;2023-05-23T03:05:23;21.00;;;16.08;;
1585;SDS011;786;48.718;9.514;2023-05-23T03:07:50;18.63;;;15.80;;
1585;SDS011;786;48.718;9.514;2023-05-23T03:10:18;19.38;;;15.43;;
1585;SDS011;786;48.718;9.514;2023-05-23T03:12:46;18.67;;;16.35;;
1585;SDS011;786;48.718;9.514;2023-05-23T03:15:12;20.65;;;16.52;;
1585;SDS011;786;48.718;9.514;2023-05-23T03:17:39;23.17;;;19.75;;
1585;SDS011;786;48.718;9.514;2023-05-23T03:20:05;20.50;;;16.65;;
1585;SDS011;786;48.718;9.514;2023-05-23T03:22:33;23.10;;;17.98;;
1585;SDS011;786;48.718;9.514;2023-05-23T03:25:00;23.27;;;18.27;;
1585;SDS011;786;48.718;9.514;2023-05-23T03:27:26;20.73;;;17.13;;
1585;SDS011;786;48.718;9.514;2023-05-23T03:29:54;21.33;;;17.83;;
1585;SDS011;786;48.718;9.514;2023-05-23T03:32:20;22.70;;;18.33;;
1585;SDS011;786;48.718;9.514;2023-05-23T03:34:46;21.02;;;17.73;;
1585;SDS011;786;48.718;9.514;2023-05-23T03:37:13;19.83;;;16.45;;
1585;SDS011;786;48.718;9.514;2023-05-23T03:39:39;23.25;;;18.80;;
1585;SDS011;786;48.718;9.514;2023-05-23T03:42:05;22.70;;;17.60;;
1585;SDS011;786;48.718;9.514;2023-05-23T03:44:32;23.30;;;18.35;;
1585;SDS011;786;48.718;9.514;2023-05-23T03:47:00;22.00;;;18.08;;
1585;SDS011;786;48.718;9.514;2023-05-23T03:49:26;21.95;;;18.10;;
1585;SDS011;786;48.718;9.514;2023-05-23T03:51:52;22.05;;;17.88;;
1585;SDS011;786;48.718;9.514;2023-05-23T03:54:19;22.45;;;17.33;;
1585;SDS011;786;48.718;9.514;2023-05-23T03:56:45;23.48;;;20.15;;
1585;SDS011;786;48.718;9.514;2023-05-23T03:59:12;23.20;;;16.42;;
1585;SDS011;786;48.718;9.514;2023-05-23T04:01:38;23.92;;;19.30;;
1585;SDS011;786;48.718;9.514;2023-05-23T04:04:06;21.38;;;16.88;;
1585;SDS011;786;48.718;9.514;2023-05-23T04:06:32;26.45;;;20.23;;
1585;SDS011;786;48.718;9.514;2023-05-23T04:08:59;23.65;;;17.48;;
1585;SDS011;786;48.718;9.514;2023-05-23T04:11:26;27.20;;;21.17;;
1585;SDS011;786;48.718;9.514;2023-05-23T04:13:52;26.13;;;20.63;;
1585;SDS011;786;48.718;9.514;2023-05-23T04:16:19;26.33;;;19.65;;
1585;SDS011;786;48.718;9.514;2023-05-23T04:18:47;30.15;;;21.90;;
1585;SDS011;786;48.718;9.514;2023-05-23T04:21:15;31.05;;;19.63;;
1585;SDS011;786;48.718;9.514;2023-05-23T04:23:41;36.00;;;28.38;;
1585;SDS011;786;48.718;9.514;2023-05-23T04:26:08;28.52;;;21.73;;
1585;SDS011;786;48.718;9.514;2023-05-23T04:28:35;30.83;;;23.23;;
1585;SDS011;786;48.718;9.514;2023-05-23T04:31:04;29.38;;;21.85;;
1585;SDS011;786;48.718;9.514;2023-05-23T04:33:30;34.15;;;22.65;;
1585;SDS011;786;48.718;9.514;2023-05-23T04:35:58;33.83;;;22.15;;
1585;SDS011;786;48.718;9.514;2023-05-23T04:38:26;32.92;;;21.92;;
1585;SDS011;786;48.718;9.514;2023-05-23T04:40:52;39.25;;;26.75;;
1585;SDS011;786;48.718;9.514;2023-05-23T04:43:19;42.38;;;29.15;;
1585;SDS011;786;48.718;9.514;2023-05-23T04:45:46;48.40;;;31.75;;
1585;SDS011;786;48.718;9.514;2023-05-23T04:48:13;46.17;;;28.83;;
1585;SDS011;786;48.718;9.514;2023-05-23T04:50:41;45.33;;;29.50;;
1585;SDS011;786;48.718;9.514;2023-05-23T04:53:07;41.72;;;26.73;;
1585;SDS011;786;48.718;9.514;2023-05-23T04:55:35;50.45;;;32.88;;
1585;SDS011;786;48.718;9.514;2023-05-23T04:58:01;41.40;;;26.80;;
1585;SDS011;786;48.718;9.514;2023-05-23T05:00:28;45.80;;;32.85;;
1585;SDS011;786;48.718;9.514;2023-05-23T05:02:54;43.00;;;30.02;;
1585;SDS011;786;48.718;9.514;2023-05-23T05:05:21;41.45;;;28.35;;
1585;SDS011;786;48.718;9.514;2023-05-23T05:07:47;47.08;;;29.88;;
1585;SDS011;786;48.718;9.514;2023-05-23T05:10:14;43.58;;;28.55;;
1585;SDS011;786;48.718;9.514;2023-05-23T05:12:43;52.38;;;32.33;;
1585;SDS011;786;48.718;9.514;2023-05-23T05:15:10;51.22;;;35.95;;
1585;SDS011;786;48.718;9.514;2023-05-23T05:17:37;49.53;;;34.15;;
1585;SDS011;786;48.718;9.514;2023-05-23T05:20:04;51.35;;;29.90;;
1585;SDS011;786;48.718;9.514;2023-05-23T05:22:32;42.78;;;30.20;;
1585;SDS011;786;48.718;9.514;2023-05-23T05:24:59;45.75;;;30.05;;
1585;SDS011;786;48.718;9.514;2023-05-23T05:27:26;42.70;;;28.33;;
1585;SDS011;786;48.718;9.514;2023-05-23T05:29:54;48.15;;;31.08;;
1585;SDS011;786;48.718;9.514;2023-05-23T05:32:22;50.47;;;32.75;;
1585;SDS011;786;48.718;9.514;2023-05-23T05:34:48;46.35;;;31.00;;
1585;SDS011;786;48.718;9.514;2023-05-23T05:37:15;45.63;;;31.02;;
1585;SDS011;786;48.718;9.514;2023-05-23T05:39:42;49.65;;;31.00;;
1585;SDS011;786;48.718;9.514;2023-05-23T05:42:08;53.05;;;32.65;;
1585;SDS011;786;48.718;9.514;2023-05-23T05:44:34;51.92;;;33.80;;
1585;SDS011;786;48.718;9.514;2023-05-23T05:47:02;51.72;;;31.38;;
1585;SDS011;786;48.718;9.514;2023-05-23T05:49:29;47.90;;;33.20;;
1585;SDS011;786;48.718;9.514;2023-05-23T05:51:55;48.20;;;31.10;;
1585;SDS011;786;48.718;9.514;2023-05-23T05:54:21;49.25;;;30.13;;
1585;SDS011;786;48.718;9.514;2023-05-23T05:56:48;45.10;;;30.05;;
1585;SDS011;786;48.718;9.514;2023-05-23T05:59:14;41.08;;;28.52;;
1585;SDS011;786;48.718;9.514;2023-05-23T06:01:41;45.30;;;31.48;;
1585;SDS011;786;48.718;9.514;2023-05-23T06:04:10;43.63;;;31.73;;
1585;SDS011;786;48.718;9.514;2023-05-23T06:06:36;45.00;;;32.17;;
1585;SDS011;786;48.718;9.514;2023-05-23T06:09:02;45.15;;;32.22;;
1585;SDS011;786;48.718;9.514;2023-05-23T06:11:29;43.17;;;29.00;;
1585;SDS011;786;48.718;9.514;2023-05-23T06:13:56;39.10;;;27.90;;
1585;SDS011;786;48.718;9.514;2023-05-23T06:16:22;41.22;;;28.45;;
1585;SDS011;786;48.718;9.514;2023-05-23T06:18:49;39.17;;;27.25;;
1585;SDS011;786;48.718;9.514;2023-05-23T06:21:16;35.35;;;25.50;;
1585;SDS011;786;48.718;9.514;2023-05-23T06:23:43;40.50;;;28.45;;
1585;SDS011;786;48.718;9.514;2023-05-23T06:26:09;34.05;;;24.95;;
1585;SDS011;786;48.718;9.514;2023-05-23T06:28:36;31.80;;;26.48;;
1585;SDS011;786;48.718;9.514;2023-05-23T06:31:03;30.73;;;23.60;;
1585;SDS011;786;48.718;9.514;2023-05-23T06:33:29;31.10;;;24.73;;
1585;SDS011;786;48.718;9.514;2023-05-23T06:35:56;31.10;;;26.52;;
1585;SDS011;786;48.718;9.514;2023-05-23T06:38:25;31.38;;;24.98;;
1585;SDS011;786;48.718;9.514;2023-05-23T06:40:52;31.02;;;23.88;;
1585;SDS011;786;48.718;9.514;2023-05-23T06:43:18;27.73;;;23.35;;
1585;SDS011;786;48.718;9.514;2023-05-23T06:45:44;27.95;;;24.90;;
1585;SDS011;786;48.718;9.514;2023-05-23T06:48:11;27.27;;;23.60;;
1585;SDS011;786;48.718;9.514;2023-05-23T06:50:37;30.35;;;27.00;;
1585;SDS011;786;48.718;9.514;2023-05-23T06:53:03;25.50;;;21.33;;
1585;SDS011;786;48.718;9.514;2023-05-23T06:55:31;25.20;;;21.25;;
1585;SDS011;786;48.718;9.514;2023-05-23T06:57:58;27.02;;;22.20;;
1585;SDS011;786;48.718;9.514;2023-05-23T07:00:24;29.23;;;22.77;;
1585;SDS011;786;48.718;9.514;2023-05-23T07:02:51;29.48;;;24.10;;
1585;SDS011;786;48.718;9.514;2023-05-23T07:05:17;27.52;;;22.33;;
1585;SDS011;786;48.718;9.514;2023-05-23T07:07:43;30.75;;;27.45;;
1585;SDS011;786;48.718;9.514;2023-05-23T07:10:10;28.08;;;22.30;;
1585;SDS011;786;48.718;9.514;2023-05-23T07:12:37;35.95;;;29.42;;
1585;SDS011;786;48.718;9.514;2023-05-23T07:15:04;34.22;;;27.85;;
1585;SDS011;786;48.718;9.514;2023-05-23T07:17:31;33.30;;;28.42;;
1585;SDS011;786;48.718;9.514;2023-05-23T07:19:58;34.83;;;26.73;;
1585;SDS011;786;48.718;9.514;2023-05-23T07:22:24;37.92;;;28.38;;
1585;SDS011;786;48.718;9.514;2023-05-23T07:24:50;34.72;;;27.00;;
1585;SDS011;786;48.718;9.514;2023-05-23T07:27:17;30.98;;;27.42;;
1585;SDS011;786;48.718;9.514;2023-05-23T07:29:44;36.63;;;30.23;;
1585;SDS011;786;48.718;9.514;2023-05-23T07:32:11;39.70;;;28.40;;
1585;SDS011;786;48.718;9.514;2023-05-23T07:34:37;37.53;;;31.42;;
1585;SDS011;786;48.718;9.514;2023-05-23T07:37:03;33.88;;;26.70;;
1585;SDS011;786;48.718;9.514;2023-05-23T07:39:30;39.95;;;27.48;;
1585;SDS011;786;48.718;9.514;2023-05-23T07:41:56;35.78;;;28.13;;
1585;SDS011;786;48.718;9.514;2023-05-23T07:44:23;33.13;;;25.10;;
1585;SDS011;786;48.718;9.514;2023-05-23T07:46:50;36.75;;;29.42;;
1585;SDS011;786;48.718;9.514;2023-05-23T07:49:17;34.17;;;28.27;;
1585;SDS011;786;48.718;9.514;2023-05-23T07:51:43;36.47;;;30.92;;
1585;SDS011;786;48.718;9.514;2023-05-23T07:54:09;36.85;;;28.08;;
1585;SDS011;786;48.718;9.514;2023-05-23T07:56:36;34.53;;;29.70;;
1585;SDS011;786;48.718;9.514;2023-05-23T07:59:03;30.50;;;25.55;;
1585;SDS011;786;48.718;9.514;2023-05-23T08:01:29;35.13;;;27.42;;
1585;SDS011;786;48.718;9.514;2023-05-23T08:03:57;33.63;;;25.48;;
1585;SDS011;786;48.718;9.514;2023-05-23T08:06:23;31.08;;;26.20;;
1585;SDS011;786;48.718;9.514;2023-05-23T08:08:50;31.05;;;26.52;;
1585;SDS011;786;48.718;9.514;2023-05-23T08:11:16;29.48;;;25.90;;
1585;SDS011;786;48.718;9.514;2023-05-23T08:13:43;33.60;;;29.25;;
1585;SDS011;786;48.718;9.514;2023-05-23T08:16:09;33.97;;;25.85;;
1585;SDS011;786;48.718;9.514;2023-05-23T08:18:35;34.35;;;26.52;;
1585;SDS011;786;48.718;9.514;2023-05-23T08:21:03;36.67;;;29.83;;
1585;SDS011;786;48.718;9.514;2023-05-23T08:23:29;32.42;;;25.58;;
1585;SDS011;786;48.718;9.514;2023-05-23T08:25:56;32.67;;;26.48;;
1585;SDS011;786;48.718;9.514;2023-05-23T08:28:22;30.52;;;24.95;;
1585;SDS011;786;48.718;9.514;2023-05-23T08:30:48;30.10;;;25.67;;
1585;SDS011;786;48.718;9.514;2023-05-23T08:33:15;28.08;;;23.33;;
1585;SDS011;786;48.718;9.514;2023-05-23T08:35:42;28.77;;;25.75;;
1585;SDS011;786;48.718;9.514;2023-05-23T08:38:09;25.73;;;22.90;;
1585;SDS011;786;48.718;9.514;2023-05-23T08:40:36;28.98;;;25.40;;
1585;SDS011;786;48.718;9.514;2023-05-23T08:43:02;26.40;;;23.52;;
1585;SDS011;786;48.718;9.514;2023-05-23T08:45:29;27.60;;;23.30;;
1585;SDS011;786;48.718;9.514;2023-05-23T08:47:55;26.13;;;23.35;;
1585;SDS011;786;48.718;9.514;2023-05-23T08:50:25;23.38;;;20.35;;
1585;SDS011;786;48.718;9.514;2023-05-23T08:52:54;25.80;;;23.25;;
1585;SDS011;786;48.718;9.514;2023-05-23T08:55:22;24.17;;;21.15;;
1585;SDS011;786;48.718;9.514;2023-05-23T08:57:50;25.20;;;22.52;;
1585;SDS011;786;48.718;9.514;2023-05-23T09:00:17;22.08;;;19.25;;
1585;SDS011;786;48.718;9.514;2023-05-23T09:02:44;23.30;;;20.58;;
1585;SDS011;786;48.718;9.514;2023-05-23T09:05:11;22.80;;;20.40;;
1585;SDS011;786;48.718;9.514;2023-05-23T09:07:37;24.45;;;22.05;;
1585;SDS011;786;48.718;9.514;2023-05-23T09:10:04;23.42;;;20.98;;
1585;SDS011;786;48.718;9.514;2023-05-23T09:12:33;21.73;;;19.42;;
1585;SDS011;786;48.718;9.514;2023-05-23T09:15:01;26.45;;;23.98;;
1585;SDS011;786;48.718;9.514;2023-05-23T09:17:27;23.75;;;21.38;;
1585;SDS011;786;48.718;9.514;2023-05-23T09:19:53;24.20;;;21.60;;
1585;SDS011;786;48.718;9.514;2023-05-23T09:22:22;22.98;;;20.63;;
1585;SDS011;786;48.718;9.514;2023-05-23T09:24:49;23.00;;;20.60;;
1585;SDS011;786;48.718;9.514;2023-05-23T09:27:15;20.70;;;18.40;;
1585;SDS011;786;48.718;9.514;2023-05-23T09:29:43;24.40;;;22.00;;
1585;SDS011;786;48.718;9.514;2023-05-23T09:32:11;20.08;;;17.90;;
1585;SDS011;786;48.718;9.514;2023-05-23T09:34:39;22.02;;;19.90;;
1585;SDS011;786;48.718;9.514;2023-05-23T09:37:06;20.58;;;18.45;;
1585;SDS011;786;48.718;9.514;2023-05-23T09:39:35;21.17;;;19.23;;
1585;SDS011;786;48.718;9.514;2023-05-23T09:42:02;20.02;;;17.42;;
1585;SDS011;786;48.718;9.514;2023-05-23T09:44:29;22.00;;;19.80;;
1585;SDS011;786;48.718;9.514;2023-05-23T09:46:56;20.35;;;18.35;;
1585;SDS011;786;48.718;9.514;2023-05-23T09:49:23;22.00;;;20.00;;
1585;SDS011;786;48.718;9.514;2023-05-23T09:51:57;21.40;;;19.25;;
1585;SDS011;786;48.718;9.514;2023-05-23T09:54:24;19.60;;;17.73;;
1585;SDS011;786;48.718;9.514;2023-05-23T09:56:51;21.15;;;19.10;;
1585;SDS011;786;48.718;9.514;2023-05-23T09:59:20;18.83;;;17.00;;
1585;SDS011;786;48.718;9.514;2023-05-23T10:01:49;18.05;;;16.42;;
1585;SDS011;786;48.718;9.514;2023-05-23T10:04:18;17.67;;;15.88;;
1585;SDS011;786;48.718;9.514;2023-05-23T10:06:48;19.13;;;17.25;;
1585;SDS011;786;48.718;9.514;2023-05-23T10:09:18;17.85;;;16.25;;
1585;SDS011;786;48.718;9.514;2023-05-23T10:17:20;16.00;;;14.50;;
1585;SDS011;786;48.718;9.514;2023-05-23T10:19:52;19.40;;;17.73;;
1585;SDS011;786;48.718;9.514;2023-05-23T10:22:22;17.25;;;15.85;;
1585;SDS011;786;48.718;9.514;2023-05-23T10:24:49;18.27;;;16.67;;
1585;SDS011;786;48.718;9.514;2023-05-23T10:27:16;18.42;;;16.80;;
1585;SDS011;786;48.718;9.514;2023-05-23T10:29:42;20.02;;;18.48;;
1585;SDS011;786;48.718;9.514;2023-05-23T10:32:09;16.35;;;14.95;;
1585;SDS011;786;48.718;9.514;2023-05-23T10:34:38;19.98;;;18.40;;
1585;SDS011;786;48.718;9.514;2023-05-23T10:37:08;16.48;;;15.25;;
1585;SDS011;786;48.718;9.514;2023-05-23T10:39:40;17.40;;;15.98;;
1585;SDS011;786;48.718;9.514;2023-05-23T10:42:12;15.43;;;14.23;;
1585;SDS011;786;48.718;9.514;2023-05-23T10:44:40;17.98;;;16.60;;
1585;SDS011;786;48.718;9.514;2023-05-23T10:47:07;16.00;;;14.60;;
1585;SDS011;786;48.718;9.514;2023-05-23T10:49:37;15.90;;;14.43;;
1585;SDS011;786;48.718;9.514;2023-05-23T10:52:04;14.75;;;13.55;;
1585;SDS011;786;48.718;9.514;2023-05-23T10:54:34;16.55;;;15.25;;
1585;SDS011;786;48.718;9.514;2023-05-23T10:57:04;15.65;;;14.45;;
1585;SDS011;786;48.718;9.514;2023-05-23T10:59:31;17.60;;;16.10;;
1585;SDS011;786;48.718;9.514;2023-05-23T11:01:58;16.80;;;15.50;;
1585;SDS011;786;48.718;9.514;2023-05-23T11:04:26;16.55;;;15.25;;
1585;SDS011;786;48.718;9.514;2023-05-23T11:06:53;16.60;;;15.10;;
1585;SDS011;786;48.718;9.514;2023-05-23T11:09:21;15.02;;;13.73;;
1585;SDS011;786;48.718;9.514;2023-05-23T11:11:52;18.60;;;17.15;;
1585;SDS011;786;48.718;9.514;2023-05-23T11:14:31;16.80;;;15.52;;
1585;SDS011;786;48.718;9.514;2023-05-23T11:17:24;17.45;;;16.05;;
1585;SDS011;786;48.718;9.514;2023-05-23T11:19:57;18.90;;;17.40;;
1585;SDS011;786;48.718;9.514;2023-05-23T11:22:28;17.67;;;16.27;;
1585;SDS011;786;48.718;9.514;2023-05-23T11:24:55;17.58;;;16.08;;
1585;SDS011;786;48.718;9.514;2023-05-23T11:27:27;18.90;;;17.40;;
1585;SDS011;786;48.718;9.514;2023-05-23T11:29:55;18.02;;;16.52;;
1585;SDS011;786;48.718;9.514;2023-05-23T11:32:22;17.67;;;16.20;;
1585;SDS011;786;48.718;9.514;2023-05-23T11:34:49;18.55;;;16.98;;
1585;SDS011;786;48.718;9.514;2023-05-23T11:37:15;21.40;;;19.60;;
1585;SDS011;786;48.718;9.514;2023-05-23T11:39:42;24.35;;;22.33;;
1585;SDS011;786;48.718;9.514;2023-05-23T11:42:08;17.60;;;16.00;;
1585;SDS011;786;48.718;9.514;2023-05-23T11:44:36;21.60;;;19.58;;
1585;SDS011;786;48.718;9.514;2023-05-23T11:47:03;14.80;;;13.45;;
1585;SDS011;786;48.718;9.514;2023-05-23T11:49:30;17.23;;;15.73;;
1585;SDS011;786;48.718;9.514;2023-05-23T11:52:00;17.40;;;15.80;;
1585;SDS011;786;48.718;9.514;2023-05-23T11:54:27;17.92;;;16.20;;
1585;SDS011;786;48.718;9.514;2023-05-23T11:56:54;18.63;;;16.98;;
1585;SDS011;786;48.718;9.514;2023-05-23T11:59:20;20.92;;;18.98;;
1585;SDS011;786;48.718;9.514;2023-05-23T12:01:49;20.85;;;18.90;;
1585;SDS011;786;48.718;9.514;2023-05-23T12:04:15;16.83;;;15.32;;
1585;SDS011;786;48.718;9.514;2023-05-23T12:06:45;23.65;;;21.40;;
1585;SDS011;786;48.718;9.514;2023-05-23T12:11:39;19.15;;;17.40;;
1585;SDS011;786;48.718;9.514;2023-05-23T12:14:06;16.98;;;15.48;;
1585;SDS011;786;48.718;9.514;2023-05-23T12:16:33;15.80;;;14.27;;
1585;SDS011;786;48.718;9.514;2023-05-23T12:19:01;14.63;;;13.27;;
1585;SDS011;786;48.718;9.514;2023-05-23T12:21:39;15.80;;;14.25;;
1585;SDS011;786;48.718;9.514;2023-05-23T12:26:44;17.05;;;15.40;;
1585;SDS011;786;48.718;9.514;2023-05-23T12:29:11;18.20;;;16.60;;
1585;SDS011;786;48.718;9.514;2023-05-23T12:31:38;17.55;;;16.02;;
1585;SDS011;786;48.718;9.514;2023-05-23T12:34:06;14.50;;;13.27;;
1585;SDS011;786;48.718;9.514;2023-05-23T12:36:32;14.55;;;13.25;;
1585;SDS011;786;48.718;9.514;2023-05-23T12:39:04;14.45;;;13.23;;
1585;SDS011;786;48.718;9.514;2023-05-23T12:41:31;16.15;;;14.68;;
1585;SDS011;786;48.718;9.514;2023-05-23T12:43:58;12.10;;;11.10;;
1585;SDS011;786;48.718;9.514;2023-05-23T12:46:25;14.07;;;12.82;;
1585;SDS011;786;48.718;9.514;2023-05-23T12:48:52;15.02;;;13.68;;
1585;SDS011;786;48.718;9.514;2023-05-23T12:51:20;12.25;;;10.95;;
1585;SDS011;786;48.718;9.514;2023-05-23T12:53:47;15.05;;;13.75;;
1585;SDS011;786;48.718;9.514;2023-05-23T12:56:13;11.00;;;10.00;;
1585;SDS011;786;48.718;9.514;2023-05-23T12:58:39;17.17;;;15.50;;
1585;SDS011;786;48.718;9.514;2023-05-23T13:01:06;11.27;;;10.23;;
1585;SDS011;786;48.718;9.514;2023-05-23T13:03:33;11.57;;;10.52;;
1585;SDS011;786;48.718;9.514;2023-05-23T13:05:59;12.30;;;11.20;;
1585;SDS011;786;48.718;9.514;2023-05-23T13:08:27;11.45;;;10.35;;
1585;SDS011;786;48.718;9.514;2023-05-23T13:10:53;17.55;;;16.00;;
1585;SDS011;786;48.718;9.514;2023-05-23T13:13:20;10.45;;;9.48;;
1585;SDS011;786;48.718;9.514;2023-05-23T13:15:47;16.67;;;15.15;;
1585;SDS011;786;48.718;9.514;2023-05-23T13:18:14;12.82;;;11.63;;
1585;SDS011;786;48.718;9.514;2023-05-23T13:20:40;16.40;;;15.00;;
1585;SDS011;786;48.718;9.514;2023-05-23T13:23:07;11.32;;;10.32;;
1585;SDS011;786;48.718;9.514;2023-05-23T13:25:35;12.25;;;11.20;;
1585;SDS011;786;48.718;9.514;2023-05-23T13:28:01;13.02;;;11.82;;
1585;SDS011;786;48.718;9.514;2023-05-23T13:30:27;13.02;;;11.82;;
1585;SDS011;786;48.718;9.514;2023-05-23T13:32:54;13.40;;;12.15;;
1585;SDS011;786;48.718;9.514;2023-05-23T13:35:20;11.18;;;10.18;;
1585;SDS011;786;48.718;9.514;2023-05-23T13:37:47;15.75;;;14.32;;
1585;SDS011;786;48.718;9.514;2023-05-23T13:40:15;11.68;;;10.57;;
1585;SDS011;786;48.718;9.514;2023-05-23T13:42:44;13.90;;;12.60;;
1585;SDS011;786;48.718;9.514;2023-05-23T13:45:10;10.43;;;9.52;;
1585;SDS011;786;48.718;9.514;2023-05-23T13:47:37;15.13;;;13.68;;
1585;SDS011;786;48.718;9.514;2023-05-23T13:50:03;12.73;;;11.63;;
1585;SDS011;786;48.718;9.514;2023-05-23T13:52:31;10.35;;;9.32;;
1585;SDS011;786;48.718;9.514;2023-05-23T13:54:57;10.32;;;9.43;;
1585;SDS011;786;48.718;9.514;2023-05-23T13:57:25;12.15;;;9.45;;
1585;SDS011;786;48.718;9.514;2023-05-23T13:59:53;14.90;;;13.40;;
1585;SDS011;786;48.718;9.514;2023-05-23T14:02:19;10.02;;;9.13;;
1585;SDS011;786;48.718;9.514;2023-05-23T14:04:47;19.15;;;17.38;;
1585;SDS011;786;48.718;9.514;2023-05-23T14:07:13;11.70;;;10.63;;
1585;SDS011;786;48.718;9.514;2023-05-23T14:09:40;14.27;;;12.90;;
1585;SDS011;786;48.718;9.514;2023-05-23T14:12:07;10.65;;;9.65;;
1585;SDS011;786;48.718;9.514;2023-05-23T14:14:33;11.48;;;10.48;;
1585;SDS011;786;48.718;9.514;2023-05-23T14:17:01;8.80;;;7.95;;
1585;SDS011;786;48.718;9.514;2023-05-23T14:19:27;10.00;;;9.10;;
1585;SDS011;786;48.718;9.514;2023-05-23T14:21:54;13.05;;;11.85;;
1585;SDS011;786;48.718;9.514;2023-05-23T14:24:20;11.57;;;10.50;;
1585;SDS011;786;48.718;9.514;2023-05-23T14:26:46;14.98;;;13.60;;
1585;SDS011;786;48.718;9.514;2023-05-23T14:29:13;10.10;;;9.10;;
1585;SDS011;786;48.718;9.514;2023-05-23T14:31:40;17.00;;;15.45;;
1585;SDS011;786;48.718;9.514;2023-05-23T14:34:08;10.18;;;9.27;;
1585;SDS011;786;48.718;9.514;2023-05-23T14:36:35;14.25;;;12.98;;
1585;SDS011;786;48.718;9.514;2023-05-23T14:39:01;9.98;;;9.05;;
1585;SDS011;786;48.718;9.514;2023-05-23T14:41:29;10.80;;;9.70;;
1585;SDS011;786;48.718;9.514;2023-05-23T14:43:55;11.88;;;10.80;;
1585;SDS011;786;48.718;9.514;2023-05-23T14:46:22;9.65;;;8.75;;
1585;SDS011;786;48.718;9.514;2023-05-23T14:48:48;12.50;;;11.30;;
1585;SDS011;786;48.718;9.514;2023-05-23T14:51:16;11.02;;;9.93;;
1585;SDS011;786;48.718;9.514;2023-05-23T14:53:42;13.73;;;12.43;;
1585;SDS011;786;48.718;9.514;2023-05-23T14:56:08;8.60;;;7.88;;
1585;SDS011;786;48.718;9.514;2023-05-23T14:58:35;10.38;;;9.45;;
1585;SDS011;786;48.718;9.514;2023-05-23T15:01:04;8.88;;;8.05;;
1585;SDS011;786;48.718;9.514;2023-05-23T15:03:30;11.38;;;10.27;;
1585;SDS011;786;48.718;9.514;2023-05-23T15:05:58;9.77;;;8.15;;
1585;SDS011;786;48.718;9.514;2023-05-23T15:08:26;9.93;;;9.02;;
1585;SDS011;786;48.718;9.514;2023-05-23T15:10:53;14.73;;;13.45;;
1585;SDS011;786;48.718;9.514;2023-05-23T15:13:19;9.40;;;8.52;;
1585;SDS011;786;48.718;9.514;2023-05-23T15:15:46;12.23;;;11.18;;